AUL169 ULMM-ULLI
Flight info
| Callsign | AUL169 |
|---|---|
| Flight time | 1h 29m |
| Altitude | 39000 |
| Route | ASGOR T693 PILAN M856 GIKUR T458 BEPOL |
| Aircraft | B738/M-S/L |
Departure
| Time | 2026-04-26 19:43 |
|---|---|
| Airport | Emperor Nicholas II Murmansk Airport (ULMM) |
Arrival
| Time | 2026-04-26 21:13 |
|---|---|
| Airport | Pulkovo Airport (ULLI) |
| Time | Latitude | Longitude | Altitude | Speed | Heading |
|---|---|---|---|---|---|
| 2026-04-26 19:15 | 68.78590 | 32.75451 | 242 ft | 0 kts | 57° |
| 2026-04-26 19:26 | 68.78584 | 32.75428 | 242 ft | 2 kts | 58° |
| 2026-04-26 19:26 | 68.78580 | 32.75389 | 243 ft | 2 kts | 83° |
| 2026-04-26 19:27 | 68.78580 | 32.75348 | 243 ft | 2 kts | 101° |
| 2026-04-26 19:27 | 68.78584 | 32.75308 | 244 ft | 2 kts | 118° |
| 2026-04-26 19:27 | 68.78593 | 32.75275 | 244 ft | 2 kts | 135° |
| 2026-04-26 19:27 | 68.78599 | 32.75258 | 244 ft | 1 kts | 146° |
| 2026-04-26 19:28 | 68.78605 | 32.75250 | 244 ft | 0 kts | 147° |
| 2026-04-26 19:34 | 68.78603 | 32.75252 | 244 ft | 1 kts | 147° |
| 2026-04-26 19:35 | 68.78574 | 32.75310 | 244 ft | 7 kts | 143° |
| 2026-04-26 19:35 | 68.78529 | 32.75412 | 242 ft | 9 kts | 140° |
| 2026-04-26 19:35 | 68.78477 | 32.75522 | 241 ft | 9 kts | 148° |
| 2026-04-26 19:35 | 68.78426 | 32.75506 | 242 ft | 1 kts | 230° |
| 2026-04-26 19:36 | 68.78424 | 32.75503 | 242 ft | 0 kts | 231° |
| 2026-04-26 19:36 | 68.78422 | 32.75492 | 243 ft | 2 kts | 234° |
| 2026-04-26 19:36 | 68.78390 | 32.75365 | 245 ft | 7 kts | 236° |
| 2026-04-26 19:36 | 68.78367 | 32.75272 | 247 ft | 3 kts | 237° |
| 2026-04-26 19:37 | 68.78359 | 32.75236 | 247 ft | 0 kts | 237° |
| 2026-04-26 19:37 | 68.78358 | 32.75234 | 248 ft | 0 kts | 237° |
| 2026-04-26 19:37 | 68.78351 | 32.75205 | 248 ft | 3 kts | 237° |
| 2026-04-26 19:37 | 68.78337 | 32.75145 | 250 ft | 4 kts | 237° |
| 2026-04-26 19:38 | 68.78319 | 32.75068 | 252 ft | 5 kts | 237° |
| 2026-04-26 19:38 | 68.78285 | 32.74976 | 254 ft | 8 kts | 188° |
| 2026-04-26 19:38 | 68.78218 | 32.75049 | 255 ft | 13 kts | 146° |
| 2026-04-26 19:38 | 68.78133 | 32.75208 | 255 ft | 15 kts | 147° |
| 2026-04-26 19:39 | 68.78044 | 32.75367 | 254 ft | 15 kts | 147° |
| 2026-04-26 19:39 | 68.77956 | 32.75538 | 252 ft | 15 kts | 144° |
| 2026-04-26 19:39 | 68.77863 | 32.75713 | 250 ft | 16 kts | 147° |
| 2026-04-26 19:39 | 68.77764 | 32.75892 | 248 ft | 17 kts | 147° |
| 2026-04-26 19:40 | 68.77664 | 32.76073 | 248 ft | 16 kts | 147° |
| 2026-04-26 19:40 | 68.77573 | 32.76246 | 250 ft | 14 kts | 145° |
| 2026-04-26 19:40 | 68.77496 | 32.76389 | 253 ft | 11 kts | 148° |
| 2026-04-26 19:40 | 68.77442 | 32.76487 | 256 ft | 7 kts | 146° |
| 2026-04-26 19:41 | 68.77408 | 32.76551 | 258 ft | 4 kts | 146° |
| 2026-04-26 19:41 | 68.77383 | 32.76596 | 259 ft | 4 kts | 145° |
| 2026-04-26 19:41 | 68.77355 | 32.76655 | 260 ft | 7 kts | 140° |
| 2026-04-26 19:41 | 68.77326 | 32.76748 | 261 ft | 9 kts | 123° |
| 2026-04-26 19:42 | 68.77271 | 32.76824 | 262 ft | 9 kts | 249° |
| 2026-04-26 19:42 | 68.77303 | 32.76742 | 261 ft | 0 kts | 324° |
| 2026-04-26 19:42 | 68.77322 | 32.76705 | 261 ft | 12 kts | 326° |
| 2026-04-26 19:42 | 68.77573 | 32.76235 | 250 ft | 81 kts | 326° |
| 2026-04-26 19:43 | 68.78232 | 32.75015 | 255 ft | 143 kts | 326° |
| 2026-04-26 19:43 | 68.79148 | 32.73382 | 612 ft | 166 kts | 327° |
| 2026-04-26 19:43 | 68.80154 | 32.71581 | 1126 ft | 186 kts | 325° |
| 2026-04-26 19:43 | 68.81207 | 32.69550 | 2029 ft | 183 kts | 324° |
| 2026-04-26 19:44 | 68.82188 | 32.67510 | 2818 ft | 181 kts | 325° |
| 2026-04-26 19:44 | 68.83280 | 32.65403 | 3163 ft | 203 kts | 328° |
| 2026-04-26 19:44 | 68.84476 | 32.63312 | 3810 ft | 212 kts | 329° |
| 2026-04-26 19:44 | 68.85724 | 32.60894 | 4388 ft | 224 kts | 321° |
| 2026-04-26 19:45 | 68.86645 | 32.57460 | 5180 ft | 231 kts | 296° |
| 2026-04-26 19:45 | 68.86974 | 32.53052 | 5692 ft | 247 kts | 276° |
| 2026-04-26 19:45 | 68.86723 | 32.48143 | 5801 ft | 265 kts | 254° |
| 2026-04-26 19:45 | 68.85832 | 32.43630 | 5784 ft | 272 kts | 239° |
| 2026-04-26 19:46 | 68.84425 | 32.39930 | 6070 ft | 290 kts | 211° |
| 2026-04-26 19:46 | 68.82564 | 32.38226 | 7070 ft | 287 kts | 192° |
| 2026-04-26 19:46 | 68.80589 | 32.37999 | 7825 ft | 292 kts | 172° |
| 2026-04-26 19:46 | 68.78693 | 32.39970 | 8557 ft | 294 kts | 149° |
| 2026-04-26 19:47 | 68.77013 | 32.43114 | 9302 ft | 297 kts | 142° |
| 2026-04-26 19:47 | 68.75911 | 32.45383 | 9768 ft | 299 kts | 142° |
| 2026-04-26 19:47 | 68.73670 | 32.49941 | 10561 ft | 309 kts | 143° |
| 2026-04-26 19:47 | 68.71918 | 32.53332 | 11320 ft | 312 kts | 144° |
| 2026-04-26 19:48 | 68.70132 | 32.56694 | 12088 ft | 314 kts | 145° |
| 2026-04-26 19:48 | 68.68308 | 32.60061 | 12919 ft | 317 kts | 147° |
| 2026-04-26 19:48 | 68.66377 | 32.62904 | 13543 ft | 324 kts | 156° |
| 2026-04-26 19:48 | 68.64256 | 32.65175 | 13999 ft | 339 kts | 161° |
| 2026-04-26 19:49 | 68.61990 | 32.67239 | 14535 ft | 348 kts | 162° |
| 2026-04-26 19:49 | 68.59696 | 32.69265 | 15308 ft | 351 kts | 162° |
| 2026-04-26 19:49 | 68.57383 | 32.71345 | 16071 ft | 355 kts | 162° |
| 2026-04-26 19:49 | 68.55044 | 32.73486 | 16782 ft | 359 kts | 162° |
| 2026-04-26 19:50 | 68.52645 | 32.75332 | 17485 ft | 362 kts | 168° |
| 2026-04-26 19:50 | 68.50141 | 32.76336 | 18172 ft | 365 kts | 176° |
| 2026-04-26 19:50 | 68.47636 | 32.76532 | 18844 ft | 368 kts | 181° |
| 2026-04-26 19:50 | 68.45069 | 32.76334 | 19473 ft | 371 kts | 184° |
| 2026-04-26 19:51 | 68.42484 | 32.75991 | 20113 ft | 374 kts | 184° |
| 2026-04-26 19:51 | 68.39904 | 32.75735 | 20721 ft | 377 kts | 182° |
| 2026-04-26 19:51 | 68.37281 | 32.75655 | 21306 ft | 381 kts | 181° |
| 2026-04-26 19:51 | 68.34624 | 32.75672 | 21867 ft | 385 kts | 180° |
| 2026-04-26 19:52 | 68.31981 | 32.75726 | 22430 ft | 388 kts | 180° |
| 2026-04-26 19:52 | 68.29292 | 32.75791 | 22969 ft | 391 kts | 180° |
| 2026-04-26 19:52 | 68.26543 | 32.75856 | 23506 ft | 394 kts | 180° |
| 2026-04-26 19:52 | 68.23850 | 32.75913 | 24029 ft | 397 kts | 180° |
| 2026-04-26 19:53 | 68.21072 | 32.75967 | 24531 ft | 400 kts | 180° |
| 2026-04-26 19:53 | 68.18292 | 32.76017 | 24998 ft | 403 kts | 180° |
| 2026-04-26 19:53 | 68.15481 | 32.76066 | 25426 ft | 407 kts | 180° |
| 2026-04-26 19:53 | 68.12686 | 32.76112 | 25829 ft | 409 kts | 181° |
| 2026-04-26 19:54 | 68.09839 | 32.76157 | 26214 ft | 412 kts | 181° |
| 2026-04-26 19:54 | 68.06980 | 32.76202 | 26585 ft | 414 kts | 181° |
| 2026-04-26 19:54 | 68.04092 | 32.76246 | 26942 ft | 416 kts | 181° |
| 2026-04-26 19:54 | 68.01221 | 32.76289 | 27278 ft | 419 kts | 181° |
| 2026-04-26 19:55 | 67.98282 | 32.76333 | 27619 ft | 421 kts | 181° |
| 2026-04-26 19:55 | 67.95376 | 32.76402 | 27949 ft | 423 kts | 180° |
| 2026-04-26 19:55 | 67.92453 | 32.76505 | 28280 ft | 425 kts | 180° |
| 2026-04-26 19:55 | 67.89479 | 32.76628 | 28629 ft | 426 kts | 180° |
| 2026-04-26 19:56 | 67.86548 | 32.76754 | 28932 ft | 428 kts | 180° |
| 2026-04-26 19:56 | 67.83566 | 32.76881 | 29227 ft | 429 kts | 180° |
| 2026-04-26 19:56 | 67.80579 | 32.77005 | 29476 ft | 432 kts | 180° |
| 2026-04-26 19:56 | 67.77576 | 32.77128 | 29741 ft | 434 kts | 180° |
| 2026-04-26 19:57 | 67.74546 | 32.77249 | 30004 ft | 436 kts | 180° |
| 2026-04-26 19:57 | 67.71549 | 32.77368 | 30268 ft | 437 kts | 180° |
| 2026-04-26 19:57 | 67.68488 | 32.77487 | 30507 ft | 439 kts | 180° |
| 2026-04-26 19:57 | 67.65471 | 32.77604 | 30702 ft | 441 kts | 180° |
| 2026-04-26 19:58 | 67.62416 | 32.77721 | 30897 ft | 442 kts | 180° |
| 2026-04-26 19:58 | 67.59328 | 32.77839 | 31080 ft | 443 kts | 180° |
| 2026-04-26 19:58 | 67.56271 | 32.77955 | 31259 ft | 445 kts | 180° |
| 2026-04-26 19:58 | 67.53161 | 32.78073 | 31454 ft | 447 kts | 180° |
| 2026-04-26 19:59 | 67.50098 | 32.78188 | 31641 ft | 448 kts | 180° |
| 2026-04-26 19:59 | 67.46950 | 32.78307 | 31816 ft | 451 kts | 180° |
| 2026-04-26 19:59 | 67.43835 | 32.78438 | 31998 ft | 452 kts | 180° |
| 2026-04-26 19:59 | 67.40722 | 32.78640 | 32165 ft | 454 kts | 179° |
| 2026-04-26 20:00 | 67.37541 | 32.78899 | 32323 ft | 456 kts | 179° |
| 2026-04-26 20:00 | 67.34405 | 32.79176 | 32499 ft | 457 kts | 179° |
| 2026-04-26 20:00 | 67.31226 | 32.79462 | 32653 ft | 458 kts | 179° |
| 2026-04-26 20:00 | 67.28081 | 32.79743 | 32795 ft | 460 kts | 179° |
| 2026-04-26 20:01 | 67.24869 | 32.80025 | 32954 ft | 461 kts | 179° |
| 2026-04-26 20:01 | 67.21684 | 32.80299 | 33105 ft | 463 kts | 179° |
| 2026-04-26 20:01 | 67.18466 | 32.80572 | 33292 ft | 465 kts | 179° |
| 2026-04-26 20:01 | 67.15269 | 32.80839 | 33461 ft | 467 kts | 179° |
| 2026-04-26 20:02 | 67.12006 | 32.81108 | 33692 ft | 469 kts | 179° |
| 2026-04-26 20:02 | 67.08752 | 32.81374 | 33905 ft | 471 kts | 179° |
| 2026-04-26 20:02 | 67.05538 | 32.81635 | 34257 ft | 469 kts | 179° |
| 2026-04-26 20:02 | 67.03381 | 32.81810 | 34493 ft | 467 kts | 179° |
| 2026-04-26 20:03 | 66.99074 | 32.82158 | 34861 ft | 467 kts | 179° |
| 2026-04-26 20:03 | 66.95833 | 32.82418 | 35140 ft | 467 kts | 179° |
| 2026-04-26 20:03 | 66.92629 | 32.82674 | 35386 ft | 467 kts | 179° |
| 2026-04-26 20:03 | 66.89349 | 32.82935 | 35654 ft | 467 kts | 179° |
| 2026-04-26 20:04 | 66.86113 | 32.83192 | 35772 ft | 469 kts | 179° |
| 2026-04-26 20:04 | 66.82825 | 32.83452 | 35791 ft | 470 kts | 179° |
| 2026-04-26 20:04 | 66.76325 | 32.83964 | 36091 ft | 468 kts | 179° |
| 2026-04-26 20:05 | 66.73084 | 32.84219 | 36313 ft | 468 kts | 179° |
| 2026-04-26 20:05 | 66.69859 | 32.84474 | 36561 ft | 468 kts | 179° |
| 2026-04-26 20:05 | 66.66634 | 32.84766 | 36753 ft | 468 kts | 178° |
| 2026-04-26 20:05 | 66.63388 | 32.85098 | 36792 ft | 470 kts | 178° |
| 2026-04-26 20:06 | 66.56907 | 32.85810 | 36799 ft | 467 kts | 178° |
| 2026-04-26 20:06 | 66.50468 | 32.86519 | 36797 ft | 469 kts | 178° |
| 2026-04-26 20:07 | 66.43913 | 32.87225 | 36798 ft | 477 kts | 178° |
| 2026-04-26 20:07 | 66.37259 | 32.87919 | 36797 ft | 482 kts | 178° |
| 2026-04-26 20:08 | 66.30627 | 32.88409 | 36794 ft | 480 kts | 179° |
| 2026-04-26 20:08 | 66.23981 | 32.88778 | 36797 ft | 480 kts | 179° |
| 2026-04-26 20:09 | 66.17336 | 32.89141 | 36791 ft | 481 kts | 179° |
| 2026-04-26 20:09 | 66.10677 | 32.89520 | 36792 ft | 480 kts | 179° |
| 2026-04-26 20:10 | 66.04051 | 32.89909 | 36786 ft | 480 kts | 179° |
| 2026-04-26 20:10 | 65.97417 | 32.90304 | 36773 ft | 480 kts | 179° |
| 2026-04-26 20:11 | 65.90745 | 32.90704 | 36768 ft | 480 kts | 179° |
| 2026-04-26 20:12 | 65.80806 | 32.91296 | 36769 ft | 479 kts | 179° |
| 2026-04-26 20:12 | 65.74165 | 32.91669 | 36768 ft | 479 kts | 180° |
| 2026-04-26 20:13 | 65.67513 | 32.91541 | 36768 ft | 480 kts | 182° |
| 2026-04-26 20:13 | 65.60887 | 32.91103 | 36769 ft | 480 kts | 182° |
| 2026-04-26 20:14 | 65.54243 | 32.90653 | 36767 ft | 480 kts | 182° |
| 2026-04-26 20:14 | 65.47614 | 32.90251 | 36768 ft | 479 kts | 182° |
| 2026-04-26 20:15 | 65.40958 | 32.89888 | 36764 ft | 478 kts | 182° |
| 2026-04-26 20:15 | 65.38876 | 32.89778 | 36764 ft | 479 kts | 182° |
| 2026-04-26 20:16 | 65.34911 | 32.89575 | 36764 ft | 480 kts | 182° |
| 2026-04-26 20:16 | 65.30274 | 32.89342 | 36758 ft | 479 kts | 181° |
| 2026-04-26 20:17 | 65.23644 | 32.89014 | 36757 ft | 479 kts | 181° |
| 2026-04-26 20:17 | 65.17003 | 32.88689 | 36757 ft | 479 kts | 181° |
| 2026-04-26 20:18 | 65.10375 | 32.88366 | 36763 ft | 480 kts | 181° |
| 2026-04-26 20:18 | 65.03766 | 32.88045 | 36766 ft | 480 kts | 182° |
| 2026-04-26 20:19 | 64.97134 | 32.87725 | 36759 ft | 478 kts | 181° |
| 2026-04-26 20:19 | 64.90494 | 32.87406 | 36749 ft | 478 kts | 181° |
| 2026-04-26 20:20 | 64.84001 | 32.87095 | 36746 ft | 479 kts | 181° |
| 2026-04-26 20:20 | 64.77228 | 32.86772 | 36743 ft | 479 kts | 182° |
| 2026-04-26 20:21 | 64.70605 | 32.86459 | 36738 ft | 479 kts | 182° |
| 2026-04-26 20:21 | 64.63974 | 32.86146 | 36734 ft | 479 kts | 182° |
| 2026-04-26 20:22 | 64.57359 | 32.85836 | 36739 ft | 479 kts | 181° |
| 2026-04-26 20:22 | 64.50745 | 32.85527 | 36740 ft | 478 kts | 181° |
| 2026-04-26 20:23 | 64.44117 | 32.85220 | 36738 ft | 478 kts | 181° |
| 2026-04-26 20:23 | 64.37503 | 32.84914 | 36736 ft | 478 kts | 181° |
| 2026-04-26 20:24 | 64.30870 | 32.84609 | 36732 ft | 478 kts | 182° |
| 2026-04-26 20:24 | 64.24262 | 32.84306 | 36735 ft | 479 kts | 182° |
| 2026-04-26 20:25 | 64.17621 | 32.84003 | 36739 ft | 480 kts | 181° |
| 2026-04-26 20:25 | 64.11003 | 32.83703 | 36741 ft | 479 kts | 181° |
| 2026-04-26 20:26 | 64.04363 | 32.83404 | 36737 ft | 478 kts | 181° |
| 2026-04-26 20:26 | 63.97766 | 32.83108 | 36736 ft | 478 kts | 181° |
| 2026-04-26 20:27 | 63.91161 | 32.82812 | 36727 ft | 478 kts | 182° |
| 2026-04-26 20:27 | 63.84549 | 32.82517 | 36713 ft | 478 kts | 182° |
| 2026-04-26 20:28 | 63.77884 | 32.82222 | 36707 ft | 479 kts | 181° |
| 2026-04-26 20:28 | 63.71246 | 32.81902 | 36701 ft | 479 kts | 182° |
| 2026-04-26 20:29 | 63.64665 | 32.81097 | 36701 ft | 479 kts | 184° |
| 2026-04-26 20:29 | 63.58047 | 32.80017 | 36696 ft | 478 kts | 185° |
| 2026-04-26 20:30 | 63.51410 | 32.78941 | 36689 ft | 478 kts | 184° |
| 2026-04-26 20:30 | 63.44811 | 32.78054 | 36688 ft | 478 kts | 184° |
| 2026-04-26 20:31 | 63.38220 | 32.77282 | 36686 ft | 479 kts | 184° |
| 2026-04-26 20:31 | 63.31580 | 32.76527 | 36685 ft | 479 kts | 184° |
| 2026-04-26 20:32 | 63.24961 | 32.75772 | 36674 ft | 479 kts | 184° |
| 2026-04-26 20:32 | 63.18353 | 32.75015 | 36674 ft | 479 kts | 184° |
| 2026-04-26 20:33 | 63.11738 | 32.74256 | 36668 ft | 478 kts | 184° |
| 2026-04-26 20:33 | 63.05093 | 32.73495 | 36671 ft | 478 kts | 184° |
| 2026-04-26 20:34 | 62.98488 | 32.72771 | 36670 ft | 478 kts | 182° |
| 2026-04-26 20:34 | 62.91868 | 32.72467 | 36659 ft | 479 kts | 181° |
| 2026-04-26 20:35 | 62.85261 | 32.72381 | 36643 ft | 479 kts | 181° |
| 2026-04-26 20:35 | 62.78598 | 32.72242 | 36628 ft | 479 kts | 182° |
| 2026-04-26 20:36 | 62.71966 | 32.71859 | 36630 ft | 479 kts | 182° |
| 2026-04-26 20:36 | 62.65311 | 32.71388 | 36626 ft | 478 kts | 182° |
| 2026-04-26 20:37 | 62.58728 | 32.70921 | 36629 ft | 478 kts | 182° |
| 2026-04-26 20:37 | 62.52086 | 32.70463 | 36637 ft | 478 kts | 182° |
| 2026-04-26 20:38 | 62.45471 | 32.70020 | 36635 ft | 479 kts | 182° |
| 2026-04-26 20:38 | 62.38863 | 32.69584 | 36621 ft | 478 kts | 182° |
| 2026-04-26 20:39 | 62.32246 | 32.69151 | 36617 ft | 478 kts | 182° |
| 2026-04-26 20:39 | 62.25649 | 32.68722 | 36606 ft | 477 kts | 182° |
| 2026-04-26 20:40 | 62.19056 | 32.68296 | 36599 ft | 476 kts | 182° |
| 2026-04-26 20:40 | 62.12439 | 32.67870 | 36606 ft | 477 kts | 182° |
| 2026-04-26 20:41 | 62.05839 | 32.67445 | 36593 ft | 477 kts | 182° |
| 2026-04-26 20:41 | 61.99251 | 32.67024 | 36577 ft | 477 kts | 182° |
| 2026-04-26 20:42 | 61.92633 | 32.66604 | 36569 ft | 477 kts | 182° |
| 2026-04-26 20:42 | 61.86037 | 32.66184 | 36575 ft | 477 kts | 182° |
| 2026-04-26 20:43 | 61.79400 | 32.65706 | 36563 ft | 478 kts | 182° |
| 2026-04-26 20:43 | 61.72812 | 32.65199 | 36563 ft | 478 kts | 183° |
| 2026-04-26 20:44 | 61.66174 | 32.64688 | 36574 ft | 478 kts | 182° |
| 2026-04-26 20:44 | 61.59561 | 32.64189 | 36568 ft | 478 kts | 182° |
| 2026-04-26 20:45 | 61.52953 | 32.63697 | 36557 ft | 479 kts | 182° |
| 2026-04-26 20:45 | 61.46309 | 32.63205 | 36562 ft | 478 kts | 182° |
| 2026-04-26 20:46 | 61.39691 | 32.62718 | 36559 ft | 480 kts | 183° |
| 2026-04-26 20:46 | 61.33072 | 32.62234 | 36552 ft | 479 kts | 182° |
| 2026-04-26 20:47 | 61.26455 | 32.61750 | 36551 ft | 478 kts | 183° |
| 2026-04-26 20:47 | 61.19821 | 32.61012 | 36544 ft | 478 kts | 184° |
| 2026-04-26 20:48 | 61.13196 | 32.60055 | 36534 ft | 480 kts | 185° |
| 2026-04-26 20:48 | 61.06591 | 32.59088 | 36529 ft | 479 kts | 185° |
| 2026-04-26 20:49 | 60.99948 | 32.58145 | 36528 ft | 480 kts | 185° |
| 2026-04-26 20:49 | 60.93365 | 32.57221 | 36531 ft | 474 kts | 185° |
| 2026-04-26 20:50 | 60.86886 | 32.56282 | 36523 ft | 463 kts | 185° |
| 2026-04-26 20:50 | 60.80457 | 32.55328 | 36525 ft | 468 kts | 186° |
| 2026-04-26 20:51 | 60.74099 | 32.53994 | 36544 ft | 449 kts | 185° |
| 2026-04-26 20:51 | 60.70995 | 32.53447 | 36006 ft | 452 kts | 187° |
| 2026-04-26 20:51 | 60.67908 | 32.52627 | 35106 ft | 458 kts | 189° |
| 2026-04-26 20:51 | 60.64753 | 32.51557 | 34189 ft | 462 kts | 191° |
| 2026-04-26 20:52 | 60.61624 | 32.50378 | 33396 ft | 462 kts | 191° |
| 2026-04-26 20:52 | 60.58503 | 32.49155 | 32621 ft | 462 kts | 191° |
| 2026-04-26 20:52 | 60.55359 | 32.47913 | 31891 ft | 462 kts | 191° |
| 2026-04-26 20:52 | 60.52254 | 32.46688 | 31123 ft | 463 kts | 191° |
| 2026-04-26 20:53 | 60.49099 | 32.45455 | 30284 ft | 464 kts | 190° |
| 2026-04-26 20:53 | 60.45944 | 32.44233 | 29474 ft | 463 kts | 190° |
| 2026-04-26 20:53 | 60.42823 | 32.43035 | 28835 ft | 456 kts | 190° |
| 2026-04-26 20:53 | 60.39748 | 32.41862 | 28120 ft | 452 kts | 189° |
| 2026-04-26 20:54 | 60.36704 | 32.40708 | 27366 ft | 449 kts | 189° |
| 2026-04-26 20:54 | 60.33659 | 32.39559 | 26675 ft | 443 kts | 189° |
| 2026-04-26 20:54 | 60.30666 | 32.38434 | 25956 ft | 439 kts | 189° |
| 2026-04-26 20:54 | 60.27698 | 32.37322 | 25201 ft | 435 kts | 189° |
| 2026-04-26 20:55 | 60.24764 | 32.36227 | 24345 ft | 432 kts | 189° |
| 2026-04-26 20:55 | 60.21841 | 32.35138 | 23559 ft | 426 kts | 189° |
| 2026-04-26 20:55 | 60.18960 | 32.34066 | 22705 ft | 422 kts | 188° |
| 2026-04-26 20:55 | 60.16106 | 32.32970 | 21866 ft | 419 kts | 190° |
| 2026-04-26 20:56 | 60.13319 | 32.31467 | 21011 ft | 416 kts | 198° |
| 2026-04-26 20:56 | 60.10715 | 32.29061 | 20154 ft | 414 kts | 210° |
| 2026-04-26 20:56 | 60.08442 | 32.25797 | 19318 ft | 411 kts | 221° |
| 2026-04-26 20:56 | 60.06447 | 32.21885 | 18505 ft | 406 kts | 229° |
| 2026-04-26 20:57 | 60.04688 | 32.17584 | 17724 ft | 399 kts | 236° |
| 2026-04-26 20:57 | 60.03305 | 32.12869 | 16910 ft | 392 kts | 247° |
| 2026-04-26 20:57 | 60.02256 | 32.07875 | 16111 ft | 385 kts | 252° |
| 2026-04-26 20:57 | 60.01385 | 32.02933 | 15358 ft | 379 kts | 255° |
| 2026-04-26 20:58 | 60.00576 | 31.97962 | 14568 ft | 374 kts | 256° |
| 2026-04-26 20:58 | 59.99796 | 31.93106 | 13811 ft | 369 kts | 255° |
| 2026-04-26 20:58 | 59.99012 | 31.88307 | 13024 ft | 366 kts | 255° |
| 2026-04-26 20:58 | 59.98213 | 31.83534 | 12247 ft | 362 kts | 255° |
| 2026-04-26 20:59 | 59.97407 | 31.78794 | 11504 ft | 358 kts | 254° |
| 2026-04-26 20:59 | 59.96616 | 31.74186 | 11039 ft | 346 kts | 254° |
| 2026-04-26 20:59 | 59.95858 | 31.69810 | 10753 ft | 331 kts | 255° |
| 2026-04-26 20:59 | 59.95113 | 31.65535 | 10453 ft | 318 kts | 255° |
| 2026-04-26 21:00 | 59.94410 | 31.61524 | 10222 ft | 305 kts | 255° |
| 2026-04-26 21:00 | 59.93721 | 31.57597 | 9992 ft | 293 kts | 255° |
| 2026-04-26 21:00 | 59.93061 | 31.53836 | 9680 ft | 286 kts | 255° |
| 2026-04-26 21:00 | 59.92411 | 31.50135 | 9247 ft | 284 kts | 255° |
| 2026-04-26 21:01 | 59.91758 | 31.46415 | 8823 ft | 281 kts | 255° |
| 2026-04-26 21:01 | 59.91121 | 31.42800 | 8385 ft | 279 kts | 255° |
| 2026-04-26 21:01 | 59.90474 | 31.39146 | 7942 ft | 278 kts | 255° |
| 2026-04-26 21:01 | 59.89840 | 31.35572 | 7493 ft | 277 kts | 255° |
| 2026-04-26 21:02 | 59.89208 | 31.32015 | 7033 ft | 280 kts | 254° |
| 2026-04-26 21:02 | 59.88569 | 31.28421 | 6683 ft | 277 kts | 253° |
| 2026-04-26 21:02 | 59.87923 | 31.24806 | 6349 ft | 275 kts | 255° |
| 2026-04-26 21:02 | 59.87274 | 31.21223 | 5996 ft | 273 kts | 255° |
| 2026-04-26 21:03 | 59.86636 | 31.17732 | 5670 ft | 270 kts | 255° |
| 2026-04-26 21:03 | 59.86004 | 31.14206 | 5522 ft | 266 kts | 258° |
| 2026-04-26 21:03 | 59.85489 | 31.10797 | 5394 ft | 258 kts | 261° |
| 2026-04-26 21:03 | 59.85017 | 31.07299 | 5085 ft | 261 kts | 261° |
| 2026-04-26 21:04 | 59.84523 | 31.03869 | 4744 ft | 258 kts | 260° |
| 2026-04-26 21:04 | 59.84025 | 31.00474 | 4425 ft | 254 kts | 261° |
| 2026-04-26 21:04 | 59.83524 | 30.97131 | 4106 ft | 251 kts | 260° |
| 2026-04-26 21:04 | 59.83013 | 30.93880 | 3818 ft | 247 kts | 261° |
| 2026-04-26 21:05 | 59.82503 | 30.90712 | 3729 ft | 235 kts | 262° |
| 2026-04-26 21:05 | 59.82021 | 30.87657 | 3651 ft | 224 kts | 262° |
| 2026-04-26 21:05 | 59.81567 | 30.84819 | 3594 ft | 212 kts | 263° |
| 2026-04-26 21:05 | 59.81132 | 30.82080 | 3537 ft | 202 kts | 264° |
| 2026-04-26 21:06 | 59.80729 | 30.79467 | 3482 ft | 197 kts | 265° |
| 2026-04-26 21:06 | 59.80323 | 30.76863 | 3431 ft | 199 kts | 263° |
| 2026-04-26 21:06 | 59.79761 | 30.74308 | 3421 ft | 208 kts | 252° |
| 2026-04-26 21:06 | 59.79022 | 30.71789 | 3421 ft | 212 kts | 250° |
| 2026-04-26 21:07 | 59.78316 | 30.69264 | 3310 ft | 213 kts | 253° |
| 2026-04-26 21:07 | 59.77621 | 30.66669 | 3077 ft | 211 kts | 253° |
| 2026-04-26 21:07 | 59.76945 | 30.64160 | 2928 ft | 203 kts | 253° |
| 2026-04-26 21:07 | 59.76287 | 30.61727 | 2777 ft | 196 kts | 253° |
| 2026-04-26 21:08 | 59.75644 | 30.59390 | 2593 ft | 191 kts | 253° |
| 2026-04-26 21:08 | 59.75081 | 30.57116 | 2442 ft | 179 kts | 262° |
| 2026-04-26 21:08 | 59.74787 | 30.54853 | 2380 ft | 161 kts | 277° |
| 2026-04-26 21:08 | 59.74841 | 30.52714 | 2383 ft | 150 kts | 296° |
| 2026-04-26 21:09 | 59.75224 | 30.50898 | 2361 ft | 135 kts | 310° |
| 2026-04-26 21:09 | 59.75614 | 30.49191 | 2190 ft | 133 kts | 303° |
| 2026-04-26 21:09 | 59.75917 | 30.47542 | 2005 ft | 124 kts | 304° |
| 2026-04-26 21:09 | 59.76203 | 30.45979 | 1906 ft | 121 kts | 302° |
| 2026-04-26 21:10 | 59.76481 | 30.44362 | 1885 ft | 124 kts | 300° |
| 2026-04-26 21:10 | 59.76750 | 30.42727 | 1704 ft | 125 kts | 300° |
| 2026-04-26 21:10 | 59.77010 | 30.41090 | 1522 ft | 123 kts | 299° |
| 2026-04-26 21:10 | 59.77269 | 30.39459 | 1340 ft | 125 kts | 298° |
| 2026-04-26 21:11 | 59.77523 | 30.37838 | 1170 ft | 124 kts | 298° |
| 2026-04-26 21:11 | 59.77782 | 30.36191 | 986 ft | 124 kts | 297° |
| 2026-04-26 21:11 | 59.78035 | 30.34557 | 808 ft | 125 kts | 295° |
| 2026-04-26 21:11 | 59.78299 | 30.32906 | 617 ft | 126 kts | 295° |
| 2026-04-26 21:12 | 59.78591 | 30.31286 | 406 ft | 123 kts | 296° |
| 2026-04-26 21:12 | 59.78819 | 30.29652 | 271 ft | 124 kts | 292° |
| 2026-04-26 21:12 | 59.79090 | 30.27985 | 113 ft | 129 kts | 292° |
| 2026-04-26 21:12 | 59.79325 | 30.26420 | 80 ft | 98 kts | 289° |
| 2026-04-26 21:13 | 59.79452 | 30.25517 | 79 ft | 40 kts | 286° |
| 2026-04-26 21:13 | 59.79504 | 30.25083 | 79 ft | 31 kts | 286° |
| 2026-04-26 21:13 | 59.79575 | 30.24631 | 79 ft | 38 kts | 290° |
| 2026-04-26 21:13 | 59.79665 | 30.24109 | 79 ft | 39 kts | 290° |
| 2026-04-26 21:14 | 59.79736 | 30.23598 | 78 ft | 36 kts | 287° |
| 2026-04-26 21:14 | 59.79829 | 30.23204 | 76 ft | 26 kts | 310° |
| 2026-04-26 21:14 | 59.79901 | 30.23061 | 76 ft | 0 kts | 316° |
| 2026-04-26 21:16 | 59.79911 | 30.23042 | 75 ft | 6 kts | 316° |
| 2026-04-26 21:16 | 59.79982 | 30.23033 | 74 ft | 15 kts | 56° |
| 2026-04-26 21:16 | 59.79954 | 30.23297 | 75 ft | 24 kts | 105° |
| 2026-04-26 21:16 | 59.79901 | 30.23645 | 76 ft | 26 kts | 106° |
| 2026-04-26 21:17 | 59.79853 | 30.23990 | 77 ft | 25 kts | 105° |
| 2026-04-26 21:17 | 59.79801 | 30.24314 | 77 ft | 24 kts | 109° |
| 2026-04-26 21:17 | 59.79754 | 30.24633 | 77 ft | 23 kts | 104° |
| 2026-04-26 21:17 | 59.79715 | 30.24910 | 78 ft | 9 kts | 106° |